sensor_id;sensor_type;location;lat;lon;timestamp;pressure;altitude;pressure_sealevel;temperature;humidity
64453;BME280;50813;52.654;6.766;2023-03-01T00:02:49;103171.0;;;-1.03;96.48
64453;BME280;50813;52.654;6.766;2023-03-01T00:04:26;103170.0;;;-0.99;95.99
64453;BME280;50813;52.654;6.766;2023-03-01T00:06:03;103159.99999999999;;;-0.79;95.99
64453;BME280;50813;52.654;6.766;2023-03-01T00:09:17;103167.0;;;-0.85;96.13
64453;BME280;50813;52.654;6.766;2023-03-01T00:11:02;103169.0;;;-1.0;97.23
64453;BME280;50813;52.654;6.766;2023-03-01T00:12:39;103166.00000000001;;;-0.97;98.72
64453;BME280;50813;52.654;6.766;2023-03-01T00:14:16;103167.0;;;-0.99;99.65
64453;BME280;50813;52.654;6.766;2023-03-01T00:17:28;103161.99999999999;;;-0.96;99.54
64453;BME280;50813;52.654;6.766;2023-03-01T00:19:04;103166.00000000001;;;-0.94;99.95
64453;BME280;50813;52.654;6.766;2023-03-01T00:20:41;103158.99999999999;;;-0.84;99.32
64453;BME280;50813;52.654;6.766;2023-03-01T00:23:54;103152.0;;;-0.83;100.0
64453;BME280;50813;52.654;6.766;2023-03-01T00:25:31;103153.0;;;-0.85;100.0
64453;BME280;50813;52.654;6.766;2023-03-01T00:27:07;103154.0;;;-0.93;100.0
64453;BME280;50813;52.654;6.766;2023-03-01T00:30:20;103158.99999999999;;;-0.96;100.0
64453;BME280;50813;52.654;6.766;2023-03-01T00:31:56;103158.99999999999;;;-0.92;100.0
64453;BME280;50813;52.654;6.766;2023-03-01T00:33:32;103151.0;;;-0.86;100.0
64453;BME280;50813;52.654;6.766;2023-03-01T00:35:09;103151.0;;;-0.82;100.0
64453;BME280;50813;52.654;6.766;2023-03-01T00:38:22;103151.0;;;-0.84;100.0
64453;BME280;50813;52.654;6.766;2023-03-01T00:39:58;103155.0;;;-0.84;100.0
64453;BME280;50813;52.654;6.766;2023-03-01T00:41:34;103158.99999999999;;;-0.9;100.0
64453;BME280;50813;52.654;6.766;2023-03-01T00:44:46;103155.0;;;-0.84;100.0
64453;BME280;50813;52.654;6.766;2023-03-01T00:46:25;103163.00000000001;;;-0.88;100.0
64453;BME280;50813;52.654;6.766;2023-03-01T00:48:02;103156.0;;;-0.84;100.0
64453;BME280;50813;52.654;6.766;2023-03-01T00:51:17;103152.0;;;-0.95;100.0
64453;BME280;50813;52.654;6.766;2023-03-01T00:52:53;103153.0;;;-0.84;100.0
64453;BME280;50813;52.654;6.766;2023-03-01T00:54:30;103152.0;;;-0.98;100.0
64453;BME280;50813;52.654;6.766;2023-03-01T00:56:09;103155.0;;;-0.92;100.0
64453;BME280;50813;52.654;6.766;2023-03-01T00:59:22;103156.0;;;-0.93;100.0
64453;BME280;50813;52.654;6.766;2023-03-01T01:00:58;103154.0;;;-0.98;100.0
64453;BME280;50813;52.654;6.766;2023-03-01T01:02:34;103151.0;;;-0.96;100.0
64453;BME280;50813;52.654;6.766;2023-03-01T01:05:49;103153.0;;;-0.89;100.0
64453;BME280;50813;52.654;6.766;2023-03-01T01:07:26;103153.0;;;-0.81;100.0
64453;BME280;50813;52.654;6.766;2023-03-01T01:09:02;103157.0;;;-0.88;100.0
64453;BME280;50813;52.654;6.766;2023-03-01T01:10:43;103158.0;;;-1.02;100.0
64453;BME280;50813;52.654;6.766;2023-03-01T01:13:57;103150.0;;;-0.78;100.0
64453;BME280;50813;52.654;6.766;2023-03-01T01:15:34;103150.0;;;-0.79;100.0
64453;BME280;50813;52.654;6.766;2023-03-01T01:17:10;103163.00000000001;;;-1.07;100.0
64453;BME280;50813;52.654;6.766;2023-03-01T01:20:22;103155.0;;;-0.83;100.0
64453;BME280;50813;52.654;6.766;2023-03-01T01:21:58;103152.0;;;-0.81;100.0
64453;BME280;50813;52.654;6.766;2023-03-01T01:23:36;103151.0;;;-0.82;100.0
64453;BME280;50813;52.654;6.766;2023-03-01T01:26:48;103149.0;;;-0.89;100.0
64453;BME280;50813;52.654;6.766;2023-03-01T01:28:25;103153.0;;;-0.87;100.0
64453;BME280;50813;52.654;6.766;2023-03-01T01:30:02;103154.0;;;-1.17;100.0
64453;BME280;50813;52.654;6.766;2023-03-01T01:31:40;103148.0;;;-1.0;100.0
64453;BME280;50813;52.654;6.766;2023-03-01T01:34:54;103143.0;;;-1.19;100.0
64453;BME280;50813;52.654;6.766;2023-03-01T01:36:30;103143.0;;;-1.03;100.0
64453;BME280;50813;52.654;6.766;2023-03-01T01:38:09;103140.00000000001;;;-0.92;100.0
64453;BME280;50813;52.654;6.766;2023-03-01T01:41:22;103140.00000000001;;;-0.97;99.86
64453;BME280;50813;52.654;6.766;2023-03-01T01:42:59;103139.00000000001;;;-1.32;100.0
64453;BME280;50813;52.654;6.766;2023-03-01T01:44:35;103132.0;;;-1.24;100.0
64453;BME280;50813;52.654;6.766;2023-03-01T01:47:59;103126.0;;;-1.45;100.0
64453;BME280;50813;52.654;6.766;2023-03-01T01:49:42;103124.0;;;-1.34;100.0
64453;BME280;50813;52.654;6.766;2023-03-01T01:51:24;103126.0;;;-1.3;100.0
64453;BME280;50813;52.654;6.766;2023-03-01T01:53:01;103118.0;;;-1.37;100.0
64453;BME280;50813;52.654;6.766;2023-03-01T01:54:42;103120.0;;;-1.21;99.5
64453;BME280;50813;52.654;6.766;2023-03-01T01:58:04;103122.0;;;-1.19;99.12
64453;BME280;50813;52.654;6.766;2023-03-01T01:59:45;103118.0;;;-1.51;99.22
64453;BME280;50813;52.654;6.766;2023-03-01T02:01:26;103120.0;;;-1.66;100.0
64453;BME280;50813;52.654;6.766;2023-03-01T02:03:04;103118.0;;;-1.76;100.0
64453;BME280;50813;52.654;6.766;2023-03-01T02:06:26;103114.00000000001;;;-1.86;100.0
64453;BME280;50813;52.654;6.766;2023-03-01T02:08:06;103115.00000000001;;;-1.93;100.0
64453;BME280;50813;52.654;6.766;2023-03-01T02:09:46;103117.0;;;-1.97;100.0
64453;BME280;50813;52.654;6.766;2023-03-01T02:11:25;103113.00000000001;;;-1.99;100.0
64453;BME280;50813;52.654;6.766;2023-03-01T02:14:40;103116.00000000001;;;-2.06;100.0
64453;BME280;50813;52.654;6.766;2023-03-01T02:16:17;103109.99999999999;;;-2.01;100.0
64453;BME280;50813;52.654;6.766;2023-03-01T02:17:54;103106.0;;;-2.03;100.0
64453;BME280;50813;52.654;6.766;2023-03-01T02:21:41;103102.0;;;-2.06;100.0
64453;BME280;50813;52.654;6.766;2023-03-01T02:23:25;103094.0;;;-2.13;100.0
64453;BME280;50813;52.654;6.766;2023-03-01T02:25:08;103093.0;;;-2.17;100.0
64453;BME280;50813;52.654;6.766;2023-03-01T02:26:52;103089.00000000001;;;-2.14;100.0
64453;BME280;50813;52.654;6.766;2023-03-01T02:28:32;103088.00000000001;;;-2.12;100.0
64453;BME280;50813;52.654;6.766;2023-03-01T02:30:10;103090.00000000001;;;-2.15;100.0
64453;BME280;50813;52.654;6.766;2023-03-01T02:33:25;103084.99999999999;;;-2.16;100.0
64453;BME280;50813;52.654;6.766;2023-03-01T02:35:02;103078.0;;;-2.14;100.0
64453;BME280;50813;52.654;6.766;2023-03-01T02:36:40;103083.99999999999;;;-2.09;100.0
64453;BME280;50813;52.654;6.766;2023-03-01T02:39:58;103084.99999999999;;;-1.97;100.0
64453;BME280;50813;52.654;6.766;2023-03-01T02:41:38;103090.00000000001;;;-1.76;100.0
64453;BME280;50813;52.654;6.766;2023-03-01T02:43:19;103088.00000000001;;;-2.08;100.0
64453;BME280;50813;52.654;6.766;2023-03-01T02:44:58;103089.00000000001;;;-2.2;100.0
64453;BME280;50813;52.654;6.766;2023-03-01T02:48:18;103089.00000000001;;;-2.15;100.0
64453;BME280;50813;52.654;6.766;2023-03-01T02:49:55;103089.00000000001;;;-2.13;100.0
64453;BME280;50813;52.654;6.766;2023-03-01T02:51:41;103083.0;;;-2.19;100.0
64453;BME280;50813;52.654;6.766;2023-03-01T02:53:28;103078.0;;;-1.96;100.0
64453;BME280;50813;52.654;6.766;2023-03-01T02:56:50;103080.0;;;-1.97;100.0
64453;BME280;50813;52.654;6.766;2023-03-01T02:58:27;103073.0;;;-1.81;100.0
64453;BME280;50813;52.654;6.766;2023-03-01T03:00:07;103072.0;;;-1.93;100.0
64453;BME280;50813;52.654;6.766;2023-03-01T03:01:44;103067.0;;;-1.88;100.0
64453;BME280;50813;52.654;6.766;2023-03-01T03:04:57;103068.0;;;-1.91;100.0
64453;BME280;50813;52.654;6.766;2023-03-01T03:06:34;103065.00000000001;;;-2.13;100.0
64453;BME280;50813;52.654;6.766;2023-03-01T03:11:22;103052.0;;;-1.92;100.0
64453;BME280;50813;52.654;6.766;2023-03-01T03:13:00;103058.99999999999;;;-2.0;100.0
64453;BME280;50813;52.654;6.766;2023-03-01T03:14:37;103059.99999999999;;;-2.22;100.0
64453;BME280;50813;52.654;6.766;2023-03-01T03:16:14;103058.99999999999;;;-2.29;100.0
64453;BME280;50813;52.654;6.766;2023-03-01T03:19:28;103055.0;;;-2.27;100.0
64453;BME280;50813;52.654;6.766;2023-03-01T03:21:07;103057.0;;;-2.28;100.0
64453;BME280;50813;52.654;6.766;2023-03-01T03:22:43;103056.0;;;-2.23;100.0
64453;BME280;50813;52.654;6.766;2023-03-01T03:25:55;103055.0;;;-2.22;100.0
64453;BME280;50813;52.654;6.766;2023-03-01T03:27:32;103051.0;;;-2.26;100.0
64453;BME280;50813;52.654;6.766;2023-03-01T03:29:08;103055.0;;;-2.39;100.0
64453;BME280;50813;52.654;6.766;2023-03-01T03:32:20;103055.0;;;-2.42;100.0
64453;BME280;50813;52.654;6.766;2023-03-01T03:33:56;103049.0;;;-2.42;100.0
64453;BME280;50813;52.654;6.766;2023-03-01T03:35:38;103051.0;;;-2.42;100.0
64453;BME280;50813;52.654;6.766;2023-03-01T03:37:16;103048.0;;;-2.45;100.0
64453;BME280;50813;52.654;6.766;2023-03-01T03:40:29;103048.0;;;-2.45;100.0
64453;BME280;50813;52.654;6.766;2023-03-01T03:42:08;103049.0;;;-2.43;100.0
64453;BME280;50813;52.654;6.766;2023-03-01T03:43:44;103051.0;;;-2.42;100.0
64453;BME280;50813;52.654;6.766;2023-03-01T03:46:56;103053.0;;;-2.46;100.0
64453;BME280;50813;52.654;6.766;2023-03-01T03:48:33;103055.0;;;-2.52;100.0
64453;BME280;50813;52.654;6.766;2023-03-01T03:50:11;103054.0;;;-2.56;100.0
64453;BME280;50813;52.654;6.766;2023-03-01T03:51:48;103058.99999999999;;;-2.53;100.0
64453;BME280;50813;52.654;6.766;2023-03-01T03:55:04;103065.00000000001;;;-2.55;100.0
64453;BME280;50813;52.654;6.766;2023-03-01T03:56:40;103065.00000000001;;;-2.51;100.0
64453;BME280;50813;52.654;6.766;2023-03-01T03:58:18;103066.00000000001;;;-2.56;100.0
64453;BME280;50813;52.654;6.766;2023-03-01T04:01:31;103063.00000000001;;;-2.67;100.0
64453;BME280;50813;52.654;6.766;2023-03-01T04:03:08;103057.0;;;-2.74;100.0
64453;BME280;50813;52.654;6.766;2023-03-01T04:04:45;103063.00000000001;;;-2.86;100.0
64453;BME280;50813;52.654;6.766;2023-03-01T04:07:59;103059.99999999999;;;-2.89;100.0
64453;BME280;50813;52.654;6.766;2023-03-01T04:09:35;103058.0;;;-2.88;100.0
64453;BME280;50813;52.654;6.766;2023-03-01T04:11:12;103059.99999999999;;;-2.87;100.0
64453;BME280;50813;52.654;6.766;2023-03-01T04:12:49;103057.0;;;-2.88;100.0
64453;BME280;50813;52.654;6.766;2023-03-01T04:16:01;103053.0;;;-2.88;100.0
64453;BME280;50813;52.654;6.766;2023-03-01T04:17:37;103048.0;;;-2.9;100.0
64453;BME280;50813;52.654;6.766;2023-03-01T04:19:13;103050.0;;;-2.89;100.0
64453;BME280;50813;52.654;6.766;2023-03-01T04:22:26;103049.0;;;-2.85;100.0
64453;BME280;50813;52.654;6.766;2023-03-01T04:24:03;103048.0;;;-2.92;100.0
64453;BME280;50813;52.654;6.766;2023-03-01T04:25:41;103044.0;;;-2.94;100.0
64453;BME280;50813;52.654;6.766;2023-03-01T04:27:17;103046.0;;;-2.94;100.0
64453;BME280;50813;52.654;6.766;2023-03-01T04:30:30;103042.0;;;-2.95;100.0
64453;BME280;50813;52.654;6.766;2023-03-01T04:32:06;103039.00000000001;;;-2.91;100.0
64453;BME280;50813;52.654;6.766;2023-03-01T04:33:44;103040.00000000001;;;-2.93;100.0
64453;BME280;50813;52.654;6.766;2023-03-01T04:36:56;103034.99999999999;;;-2.91;100.0
64453;BME280;50813;52.654;6.766;2023-03-01T04:38:33;103036.99999999999;;;-3.0;100.0
64453;BME280;50813;52.654;6.766;2023-03-01T04:40:10;103034.99999999999;;;-2.99;100.0
64453;BME280;50813;52.654;6.766;2023-03-01T04:43:23;103034.99999999999;;;-2.96;100.0
64453;BME280;50813;52.654;6.766;2023-03-01T04:44:59;103032.0;;;-2.98;100.0
64453;BME280;50813;52.654;6.766;2023-03-01T04:46:35;103033.99999999999;;;-2.93;100.0
64453;BME280;50813;52.654;6.766;2023-03-01T04:48:12;103024.0;;;-2.96;100.0
64453;BME280;50813;52.654;6.766;2023-03-01T04:51:25;103024.0;;;-3.01;100.0
64453;BME280;50813;52.654;6.766;2023-03-01T04:53:02;103021.0;;;-3.02;100.0
64453;BME280;50813;52.654;6.766;2023-03-01T04:54:38;103018.0;;;-3.03;100.0
64453;BME280;50813;52.654;6.766;2023-03-01T04:57:52;103014.00000000001;;;-3.0;100.0
64453;BME280;50813;52.654;6.766;2023-03-01T04:59:29;103008.0;;;-3.07;100.0
64453;BME280;50813;52.654;6.766;2023-03-01T05:01:10;103008.99999999999;;;-3.05;100.0
64453;BME280;50813;52.654;6.766;2023-03-01T05:04:24;103005.0;;;-3.07;100.0
64453;BME280;50813;52.654;6.766;2023-03-01T05:06:00;103008.99999999999;;;-3.08;100.0
64453;BME280;50813;52.654;6.766;2023-03-01T05:07:36;103005.0;;;-3.04;100.0
64453;BME280;50813;52.654;6.766;2023-03-01T05:09:12;103006.0;;;-3.12;100.0
64453;BME280;50813;52.654;6.766;2023-03-01T05:12:28;103006.0;;;-3.15;100.0
64453;BME280;50813;52.654;6.766;2023-03-01T05:14:05;103004.0;;;-3.16;100.0
64453;BME280;50813;52.654;6.766;2023-03-01T05:15:42;103004.0;;;-3.21;100.0
64453;BME280;50813;52.654;6.766;2023-03-01T05:18:54;103004.0;;;-3.25;100.0
64453;BME280;50813;52.654;6.766;2023-03-01T05:20:30;102995.0;;;-3.23;100.0
64453;BME280;50813;52.654;6.766;2023-03-01T05:22:07;102996.0;;;-3.16;100.0
64453;BME280;50813;52.654;6.766;2023-03-01T05:25:20;102992.0;;;-3.17;100.0
64453;BME280;50813;52.654;6.766;2023-03-01T05:26:58;102986.99999999999;;;-3.2;100.0
64453;BME280;50813;52.654;6.766;2023-03-01T05:28:34;102982.0;;;-3.23;100.0
64453;BME280;50813;52.654;6.766;2023-03-01T05:30:12;102976.0;;;-3.29;100.0
64453;BME280;50813;52.654;6.766;2023-03-01T05:33:25;102976.0;;;-3.34;100.0
64453;BME280;50813;52.654;6.766;2023-03-01T05:35:03;102973.0;;;-3.31;100.0
64453;BME280;50813;52.654;6.766;2023-03-01T05:36:40;102972.0;;;-3.26;100.0
64453;BME280;50813;52.654;6.766;2023-03-01T05:39:52;102977.0;;;-3.38;100.0
64453;BME280;50813;52.654;6.766;2023-03-01T05:41:28;102969.0;;;-3.47;100.0
64453;BME280;50813;52.654;6.766;2023-03-01T05:43:05;102976.0;;;-3.47;100.0
64453;BME280;50813;52.654;6.766;2023-03-01T05:44:41;102974.0;;;-3.5;100.0
64453;BME280;50813;52.654;6.766;2023-03-01T05:47:55;102975.0;;;-3.5;100.0
64453;BME280;50813;52.654;6.766;2023-03-01T05:49:31;102972.0;;;-3.48;100.0
64453;BME280;50813;52.654;6.766;2023-03-01T05:51:07;102976.0;;;-3.57;100.0
64453;BME280;50813;52.654;6.766;2023-03-01T05:54:21;102978.0;;;-3.55;100.0
64453;BME280;50813;52.654;6.766;2023-03-01T05:55:59;102971.0;;;-3.54;100.0
64453;BME280;50813;52.654;6.766;2023-03-01T05:57:35;102973.0;;;-3.56;100.0
64453;BME280;50813;52.654;6.766;2023-03-01T06:00:48;102971.0;;;-3.59;100.0
64453;BME280;50813;52.654;6.766;2023-03-01T06:02:24;102973.0;;;-3.61;100.0
64453;BME280;50813;52.654;6.766;2023-03-01T06:04:01;102973.0;;;-3.65;100.0
64453;BME280;50813;52.654;6.766;2023-03-01T06:05:38;102970.0;;;-3.65;100.0
64453;BME280;50813;52.654;6.766;2023-03-01T06:08:51;102973.0;;;-3.62;100.0
64453;BME280;50813;52.654;6.766;2023-03-01T06:10:29;102978.0;;;-3.56;100.0
64453;BME280;50813;52.654;6.766;2023-03-01T06:12:05;102981.0;;;-3.55;100.0
64453;BME280;50813;52.654;6.766;2023-03-01T06:15:20;102983.99999999999;;;-3.55;100.0
64453;BME280;50813;52.654;6.766;2023-03-01T06:16:57;102983.99999999999;;;-3.55;100.0
64453;BME280;50813;52.654;6.766;2023-03-01T06:18:34;102980.0;;;-3.59;100.0
64453;BME280;50813;52.654;6.766;2023-03-01T06:21:50;102984.99999999999;;;-3.6;100.0
64453;BME280;50813;52.654;6.766;2023-03-01T06:23:26;102984.99999999999;;;-3.62;100.0
64453;BME280;50813;52.654;6.766;2023-03-01T06:25:04;102983.0;;;-3.59;100.0
64453;BME280;50813;52.654;6.766;2023-03-01T06:26:40;102981.0;;;-3.55;100.0
64453;BME280;50813;52.654;6.766;2023-03-01T06:29:53;102983.0;;;-3.59;100.0
64453;BME280;50813;52.654;6.766;2023-03-01T06:31:29;102982.0;;;-3.6;100.0
64453;BME280;50813;52.654;6.766;2023-03-01T06:33:05;102990.00000000001;;;-3.57;100.0
64453;BME280;50813;52.654;6.766;2023-03-01T06:36:17;102993.0;;;-3.6;100.0
64453;BME280;50813;52.654;6.766;2023-03-01T06:37:53;102993.0;;;-3.61;100.0
64453;BME280;50813;52.654;6.766;2023-03-01T06:39:30;102998.0;;;-3.68;100.0
64453;BME280;50813;52.654;6.766;2023-03-01T06:42:47;102997.0;;;-3.71;100.0
64453;BME280;50813;52.654;6.766;2023-03-01T06:44:25;103001.0;;;-3.64;100.0
64453;BME280;50813;52.654;6.766;2023-03-01T06:46:04;103001.0;;;-3.65;100.0
64453;BME280;50813;52.654;6.766;2023-03-01T06:47:40;103003.0;;;-3.6;100.0
64453;BME280;50813;52.654;6.766;2023-03-01T06:50:52;103002.0;;;-3.64;100.0
64453;BME280;50813;52.654;6.766;2023-03-01T06:52:30;103005.0;;;-3.59;100.0
64453;BME280;50813;52.654;6.766;2023-03-01T06:54:07;103001.0;;;-3.63;100.0
64453;BME280;50813;52.654;6.766;2023-03-01T06:57:19;103002.0;;;-3.51;100.0
64453;BME280;50813;52.654;6.766;2023-03-01T06:58:55;103005.0;;;-3.47;100.0
64453;BME280;50813;52.654;6.766;2023-03-01T07:00:32;103006.0;;;-3.41;100.0
64453;BME280;50813;52.654;6.766;2023-03-01T07:02:10;103008.0;;;-3.32;100.0
64453;BME280;50813;52.654;6.766;2023-03-01T07:05:23;103006.0;;;-3.36;100.0
64453;BME280;50813;52.654;6.766;2023-03-01T07:06:59;103009.99999999999;;;-3.33;100.0
64453;BME280;50813;52.654;6.766;2023-03-01T07:08:35;103015.00000000001;;;-3.32;100.0
64453;BME280;50813;52.654;6.766;2023-03-01T07:11:49;103020.0;;;-3.28;100.0
64453;BME280;50813;52.654;6.766;2023-03-01T07:13:26;103017.0;;;-3.25;100.0
64453;BME280;50813;52.654;6.766;2023-03-01T07:15:03;103016.00000000001;;;-3.15;100.0
64453;BME280;50813;52.654;6.766;2023-03-01T07:18:16;103021.0;;;-2.82;100.0
64453;BME280;50813;52.654;6.766;2023-03-01T07:19:53;103021.0;;;-2.81;100.0
64453;BME280;50813;52.654;6.766;2023-03-01T07:21:29;103023.0;;;-2.69;100.0
64453;BME280;50813;52.654;6.766;2023-03-01T07:23:06;103018.0;;;-2.44;100.0
64453;BME280;50813;52.654;6.766;2023-03-01T07:26:19;103024.0;;;-2.28;100.0
64453;BME280;50813;52.654;6.766;2023-03-01T07:27:55;103026.0;;;-2.06;100.0
64453;BME280;50813;52.654;6.766;2023-03-01T07:29:31;103031.0;;;-1.89;100.0
64453;BME280;50813;52.654;6.766;2023-03-01T07:32:44;103028.0;;;-1.74;100.0
64453;BME280;50813;52.654;6.766;2023-03-01T07:34:20;103025.0;;;-1.58;100.0
64453;BME280;50813;52.654;6.766;2023-03-01T07:35:57;103025.0;;;-1.37;100.0
64453;BME280;50813;52.654;6.766;2023-03-01T07:39:10;103024.0;;;-1.14;100.0
64453;BME280;50813;52.654;6.766;2023-03-01T07:40:46;103026.0;;;-0.96;100.0
64453;BME280;50813;52.654;6.766;2023-03-01T07:42:23;103022.0;;;-0.75;100.0
64453;BME280;50813;52.654;6.766;2023-03-01T07:43:59;103022.0;;;-0.54;100.0
64453;BME280;50813;52.654;6.766;2023-03-01T07:47:11;103019.0;;;-0.41;100.0
64453;BME280;50813;52.654;6.766;2023-03-01T07:48:47;103013.00000000001;;;-0.21;100.0
64453;BME280;50813;52.654;6.766;2023-03-01T07:50:23;103011.99999999999;;;-0.04;100.0
64453;BME280;50813;52.654;6.766;2023-03-01T07:53:36;102999.0;;;0.2;100.0
64453;BME280;50813;52.654;6.766;2023-03-01T07:55:13;102996.0;;;0.2;100.0
64453;BME280;50813;52.654;6.766;2023-03-01T07:56:50;102998.0;;;0.47;100.0
64453;BME280;50813;52.654;6.766;2023-03-01T08:00:04;103000.0;;;0.49;99.77
64453;BME280;50813;52.654;6.766;2023-03-01T08:01:41;102999.0;;;0.67;99.56
64453;BME280;50813;52.654;6.766;2023-03-01T08:03:17;102995.0;;;0.77;98.75
64453;BME280;50813;52.654;6.766;2023-03-01T08:04:53;102991.00000000001;;;0.84;97.64
64453;BME280;50813;52.654;6.766;2023-03-01T08:08:05;102992.0;;;0.93;97.88
64453;BME280;50813;52.654;6.766;2023-03-01T08:09:42;102990.00000000001;;;1.19;96.92
64453;BME280;50813;52.654;6.766;2023-03-01T08:11:18;102989.00000000001;;;1.1;96.64
64453;BME280;50813;52.654;6.766;2023-03-01T08:14:30;102988.00000000001;;;1.36;96.39
64453;BME280;50813;52.654;6.766;2023-03-01T08:16:08;102981.0;;;1.46;95.98
64453;BME280;50813;52.654;6.766;2023-03-01T08:17:48;102982.0;;;1.66;95.57
64453;BME280;50813;52.654;6.766;2023-03-01T08:21:03;102983.99999999999;;;1.73;95.06
64453;BME280;50813;52.654;6.766;2023-03-01T08:22:40;102988.00000000001;;;1.85;94.43
64453;BME280;50813;52.654;6.766;2023-03-01T08:24:16;102984.99999999999;;;1.99;94.1
64453;BME280;50813;52.654;6.766;2023-03-01T08:25:52;102990.00000000001;;;2.13;93.54
64453;BME280;50813;52.654;6.766;2023-03-01T08:29:05;102984.99999999999;;;2.29;93.0
64453;BME280;50813;52.654;6.766;2023-03-01T08:30:41;102988.00000000001;;;2.34;92.86
64453;BME280;50813;52.654;6.766;2023-03-01T08:32:17;102983.99999999999;;;2.58;92.13
64453;BME280;50813;52.654;6.766;2023-03-01T08:35:33;102976.0;;;2.63;91.4
64453;BME280;50813;52.654;6.766;2023-03-01T08:37:09;102973.0;;;2.71;90.44
64453;BME280;50813;52.654;6.766;2023-03-01T08:38:46;102968.0;;;2.88;90.06
64453;BME280;50813;52.654;6.766;2023-03-01T08:41:58;102972.0;;;2.94;90.71
64453;BME280;50813;52.654;6.766;2023-03-01T08:43:34;102965.00000000001;;;3.12;90.1
64453;BME280;50813;52.654;6.766;2023-03-01T08:45:11;102967.0;;;3.12;89.28
64453;BME280;50813;52.654;6.766;2023-03-01T08:46:48;102966.00000000001;;;3.41;88.17
64453;BME280;50813;52.654;6.766;2023-03-01T08:50:01;102968.0;;;3.35;88.52
64453;BME280;50813;52.654;6.766;2023-03-01T08:51:38;102972.0;;;3.52;88.91
64453;BME280;50813;52.654;6.766;2023-03-01T08:53:15;102974.0;;;3.74;87.73
64453;BME280;50813;52.654;6.766;2023-03-01T08:56:27;102974.0;;;3.95;86.47
64453;BME280;50813;52.654;6.766;2023-03-01T08:58:03;102975.0;;;4.03;85.5
64453;BME280;50813;52.654;6.766;2023-03-01T08:59:40;102967.0;;;4.04;85.22
64453;BME280;50813;52.654;6.766;2023-03-01T09:02:55;102965.00000000001;;;4.34;84.05
64453;BME280;50813;52.654;6.766;2023-03-01T09:04:31;102966.00000000001;;;4.59;83.66
64453;BME280;50813;52.654;6.766;2023-03-01T09:06:07;102964.00000000001;;;4.68;80.49
64453;BME280;50813;52.654;6.766;2023-03-01T09:07:44;102967.0;;;4.53;79.69
64453;BME280;50813;52.654;6.766;2023-03-01T09:10:56;102972.0;;;4.18;79.94
64453;BME280;50813;52.654;6.766;2023-03-01T09:12:33;102972.0;;;4.49;80.63
64453;BME280;50813;52.654;6.766;2023-03-01T09:14:09;102971.0;;;4.87;79.72
64453;BME280;50813;52.654;6.766;2023-03-01T09:17:21;102971.0;;;4.87;79.41
64453;BME280;50813;52.654;6.766;2023-03-01T09:18:57;102975.0;;;5.01;78.64
64453;BME280;50813;52.654;6.766;2023-03-01T09:20:34;102973.0;;;5.26;76.78
64453;BME280;50813;52.654;6.766;2023-03-01T09:23:47;102972.0;;;5.43;77.97
64453;BME280;50813;52.654;6.766;2023-03-01T09:25:24;102975.0;;;5.56;74.98
64453;BME280;50813;52.654;6.766;2023-03-01T09:27:00;102974.0;;;5.37;72.77
64453;BME280;50813;52.654;6.766;2023-03-01T09:28:37;102970.0;;;5.49;72.94
64453;BME280;50813;52.654;6.766;2023-03-01T09:31:50;102974.0;;;5.68;72.86
64453;BME280;50813;52.654;6.766;2023-03-01T09:33:26;102971.0;;;5.62;75.11
64453;BME280;50813;52.654;6.766;2023-03-01T09:35:04;102968.0;;;5.82;72.91
64453;BME280;50813;52.654;6.766;2023-03-01T09:38:17;102968.0;;;6.08;68.08
64453;BME280;50813;52.654;6.766;2023-03-01T09:39:52;102970.0;;;6.1;70.83
64453;BME280;50813;52.654;6.766;2023-03-01T09:41:43;102971.0;;;6.29;71.13
64453;BME280;50813;52.654;6.766;2023-03-01T09:43:41;102964.00000000001;;;6.21;72.45
64453;BME280;50813;52.654;6.766;2023-03-01T09:45:30;102961.99999999999;;;6.25;67.78
64453;BME280;50813;52.654;6.766;2023-03-01T09:48:56;102955.0;;;6.25;64.8
64453;BME280;50813;52.654;6.766;2023-03-01T09:50:40;102950.0;;;6.22;62.78
64453;BME280;50813;52.654;6.766;2023-03-01T09:52:23;102951.0;;;6.25;62.09
64453;BME280;50813;52.654;6.766;2023-03-01T09:54:05;102941.00000000001;;;5.84;60.77
64453;BME280;50813;52.654;6.766;2023-03-01T09:57:28;102946.0;;;6.09;61.17
64453;BME280;50813;52.654;6.766;2023-03-01T09:59:17;102943.0;;;5.95;62.63
64453;BME280;50813;52.654;6.766;2023-03-01T10:01:03;102939.00000000001;;;6.13;62.71
64453;BME280;50813;52.654;6.766;2023-03-01T10:02:49;102936.99999999999;;;5.63;60.79
64453;BME280;50813;52.654;6.766;2023-03-01T10:04:35;102934.99999999999;;;5.9;60.77
64453;BME280;50813;52.654;6.766;2023-03-01T10:06:21;102938.00000000001;;;6.11;60.52
64453;BME280;50813;52.654;6.766;2023-03-01T10:10:04;102941.00000000001;;;5.84;60.25
64453;BME280;50813;52.654;6.766;2023-03-01T10:11:43;102938.00000000001;;;5.8;58.76
64453;BME280;50813;52.654;6.766;2023-03-01T10:13:25;102938.00000000001;;;5.86;59.54
64453;BME280;50813;52.654;6.766;2023-03-01T10:15:08;102932.0;;;5.61;60.96
64453;BME280;50813;52.654;6.766;2023-03-01T10:16:51;102930.0;;;5.9;61.08
64453;BME280;50813;52.654;6.766;2023-03-01T10:20:17;102926.0;;;5.69;60.33
64453;BME280;50813;52.654;6.766;2023-03-01T10:22:03;102926.0;;;5.63;59.0
64453;BME280;50813;52.654;6.766;2023-03-01T10:23:46;102921.0;;;5.81;58.71
64453;BME280;50813;52.654;6.766;2023-03-01T10:25:40;102921.0;;;5.9;55.71
64453;BME280;50813;52.654;6.766;2023-03-01T10:27:23;102926.0;;;5.34;55.08
64453;BME280;50813;52.654;6.766;2023-03-01T10:30:40;102926.0;;;5.59;55.0
64453;BME280;50813;52.654;6.766;2023-03-01T10:32:18;102929.0;;;5.64;54.63
64453;BME280;50813;52.654;6.766;2023-03-01T10:33:55;102934.99999999999;;;5.8;58.17
64453;BME280;50813;52.654;6.766;2023-03-01T10:35:33;102936.99999999999;;;6.06;58.66
64453;BME280;50813;52.654;6.766;2023-03-01T10:38:50;102938.00000000001;;;6.06;55.37
64453;BME280;50813;52.654;6.766;2023-03-01T10:40:28;102933.99999999999;;;5.9;55.31
64453;BME280;50813;52.654;6.766;2023-03-01T10:42:09;102932.0;;;6.15;55.33
64453;BME280;50813;52.654;6.766;2023-03-01T10:43:56;102934.99999999999;;;6.57;55.46